createdAt,value
2023-05-10T00:00:25.714Z,15.30
2023-05-10T00:03:11.551Z,14.10
2023-05-10T00:05:41.188Z,16.40
2023-05-10T00:08:10.824Z,16.10
2023-05-10T00:10:42.885Z,15.10
2023-05-10T00:13:12.244Z,13.30
2023-05-10T00:15:42.572Z,13.20
2023-05-10T00:18:14.034Z,13.80
2023-05-10T00:20:47.879Z,13.20
2023-05-10T00:23:17.238Z,13.70
2023-05-10T00:25:46.753Z,11.40
2023-05-10T00:28:16.162Z,13.80
2023-05-10T00:30:45.879Z,14.60
2023-05-10T00:33:15.646Z,15.30
2023-05-10T00:35:45.255Z,13.60
2023-05-10T00:38:15.457Z,14.10
2023-05-10T00:40:45.206Z,13.50
2023-05-10T00:43:20.495Z,12.00
2023-05-10T00:45:52.568Z,16.30
2023-05-10T00:48:23.516Z,14.70
2023-05-10T00:50:52.978Z,14.70
2023-05-10T00:53:22.976Z,12.20
2023-05-10T00:55:52.496Z,15.50
2023-05-10T00:58:22.079Z,13.30
2023-05-10T01:00:53.410Z,11.80
2023-05-10T01:03:23.653Z,13.50
2023-05-10T01:05:53.227Z,13.00
2023-05-10T01:08:27.200Z,17.40
2023-05-10T01:10:59.554Z,16.10
2023-05-10T01:13:39.093Z,14.40
2023-05-10T01:16:08.810Z,13.20
2023-05-10T01:18:41.974Z,14.50
2023-05-10T01:22:13.092Z,14.30
2023-05-10T01:25:11.707Z,15.50
2023-05-10T01:28:00.920Z,16.80
2023-05-10T01:31:12.833Z,17.30
2023-05-10T01:34:16.663Z,14.10
2023-05-10T01:37:00.290Z,15.70
2023-05-10T01:39:38.386Z,17.40
2023-05-10T01:42:30.218Z,15.90
2023-05-10T01:45:28.913Z,13.80
2023-05-10T01:48:21.447Z,16.90
2023-05-10T01:50:53.522Z,18.10
2023-05-10T01:53:24.448Z,16.40
2023-05-10T01:55:57.588Z,14.60
2023-05-10T02:01:07.145Z,14.70
2023-05-10T02:03:39.606Z,15.60
2023-05-10T02:06:11.841Z,16.30
2023-05-10T02:08:42.967Z,15.40
2023-05-10T02:11:15.180Z,16.60
2023-05-10T02:13:46.228Z,18.70
2023-05-10T02:16:19.027Z,18.30
2023-05-10T02:18:50.657Z,18.10
2023-05-10T02:21:23.443Z,18.20
2023-05-10T02:23:54.078Z,18.30
2023-05-10T02:26:26.473Z,21.80
2023-05-10T02:28:58.401Z,21.50
2023-05-10T02:31:28.082Z,21.40
2023-05-10T02:34:00.190Z,22.90
2023-05-10T02:36:33.070Z,18.50
2023-05-10T02:39:03.601Z,19.50
2023-05-10T02:41:34.612Z,20.20
2023-05-10T02:44:07.978Z,20.20
2023-05-10T02:46:38.828Z,20.10
2023-05-10T02:49:09.824Z,20.50
2023-05-10T02:51:52.011Z,20.10
2023-05-10T02:54:31.604Z,23.80
2023-05-10T02:57:06.626Z,23.90
2023-05-10T02:59:36.513Z,22.70
2023-05-10T03:02:08.986Z,21.20
2023-05-10T03:04:39.134Z,19.10
2023-05-10T03:07:09.245Z,28.40
2023-05-10T03:09:42.495Z,25.00
2023-05-10T03:13:12.209Z,26.40
2023-05-10T03:16:28.369Z,21.50
2023-05-10T03:19:28.850Z,30.30
2023-05-10T03:22:05.968Z,25.20
2023-05-10T03:24:42.720Z,22.30
2023-05-10T03:29:47.934Z,23.80
2023-05-10T03:32:19.795Z,23.40
2023-05-10T03:34:51.517Z,23.80
2023-05-10T03:37:25.071Z,23.30
2023-05-10T03:39:55.241Z,24.70
2023-05-10T03:42:25.008Z,24.90
2023-05-10T03:44:54.533Z,27.40
2023-05-10T03:47:24.746Z,25.70
2023-05-10T03:49:55.620Z,27.80
2023-05-10T03:52:26.627Z,30.20
2023-05-10T03:54:56.047Z,27.30
2023-05-10T03:57:26.739Z,32.70
2023-05-10T03:59:57.034Z,34.50
2023-05-10T04:02:28.969Z,35.90
2023-05-10T04:04:58.551Z,32.80
2023-05-10T04:07:28.818Z,33.50
2023-05-10T04:09:58.949Z,35.60
2023-05-10T04:12:30.881Z,34.60
2023-05-10T04:15:00.308Z,30.90
2023-05-10T04:17:30.712Z,31.80
2023-05-10T04:20:01.954Z,28.70
2023-05-10T04:22:31.587Z,30.30
2023-05-10T04:25:01.977Z,24.20
2023-05-10T04:27:32.943Z,26.60
2023-05-10T04:30:03.819Z,25.60
2023-05-10T04:32:33.618Z,28.50
2023-05-10T04:35:05.789Z,31.70
2023-05-10T04:37:35.998Z,29.20
2023-05-10T04:40:09.820Z,31.00
2023-05-10T04:42:48.586Z,27.60
2023-05-10T04:45:20.948Z,30.10
2023-05-10T04:47:50.572Z,25.30
2023-05-10T04:50:20.868Z,28.50
2023-05-10T04:52:52.687Z,36.70
2023-05-10T04:55:24.864Z,31.70
2023-05-10T04:57:58.488Z,31.60
2023-05-10T05:00:27.951Z,33.30
2023-05-10T05:02:57.741Z,33.10
2023-05-10T05:05:27.398Z,30.10
2023-05-10T05:07:58.082Z,29.70
2023-05-10T05:10:27.739Z,27.50
2023-05-10T05:12:58.254Z,33.90
2023-05-10T05:15:29.086Z,22.30
2023-05-10T05:17:58.845Z,34.10
2023-05-10T05:20:28.607Z,35.50
2023-05-10T05:22:58.087Z,33.40
2023-05-10T05:25:27.361Z,30.50
2023-05-10T05:27:58.381Z,31.90
2023-05-10T05:30:28.010Z,30.20
2023-05-10T05:32:57.880Z,28.60
2023-05-10T05:35:27.426Z,29.80
2023-05-10T05:37:57.121Z,27.20
2023-05-10T05:40:26.618Z,30.30
2023-05-10T05:42:56.420Z,31.30
2023-05-10T05:45:27.015Z,34.30
2023-05-10T05:47:56.424Z,36.30
2023-05-10T05:50:26.035Z,44.70
2023-05-10T05:52:59.079Z,54.60
2023-05-10T05:55:28.897Z,48.10
2023-05-10T05:58:00.057Z,35.00
2023-05-10T06:00:29.730Z,36.70
2023-05-10T06:02:59.142Z,34.40
2023-05-10T06:05:28.571Z,31.20
2023-05-10T06:08:02.540Z,37.80
2023-05-10T06:10:32.390Z,31.20
2023-05-10T06:13:01.798Z,34.20
2023-05-10T06:15:31.656Z,27.80
2023-05-10T06:18:01.344Z,19.40
2023-05-10T06:20:32.841Z,22.60
2023-05-10T06:23:02.367Z,18.10
2023-05-10T06:25:31.675Z,25.10
2023-05-10T06:28:01.481Z,20.60
2023-05-10T06:30:31.159Z,25.30
2023-05-10T06:33:02.878Z,27.40
2023-05-10T06:35:34.626Z,26.00
2023-05-10T06:38:03.930Z,26.30
2023-05-10T06:40:34.879Z,19.70
2023-05-10T06:43:05.131Z,19.30
2023-05-10T06:45:34.691Z,19.20
2023-05-10T06:48:04.571Z,16.00
2023-05-10T06:50:35.495Z,16.10
2023-05-10T06:53:04.976Z,13.10
2023-05-10T06:55:34.685Z,17.10
2023-05-10T06:58:04.472Z,9.90
2023-05-10T07:00:34.112Z,17.10
2023-05-10T07:03:03.997Z,11.50
2023-05-10T07:05:33.564Z,16.20
2023-05-10T07:08:03.121Z,22.60
2023-05-10T07:10:32.687Z,13.00
2023-05-10T07:13:02.527Z,11.50
2023-05-10T07:15:33.670Z,15.00
2023-05-10T07:18:07.185Z,13.00
2023-05-10T07:20:36.997Z,10.00
2023-05-10T07:23:06.291Z,15.30
2023-05-10T07:25:35.626Z,11.10
2023-05-10T07:28:07.835Z,7.50
2023-05-10T07:30:39.728Z,9.60
2023-05-10T07:33:11.546Z,14.00
2023-05-10T07:35:41.655Z,13.60
2023-05-10T07:38:15.610Z,12.70
2023-05-10T07:40:45.034Z,10.80
2023-05-10T07:43:14.458Z,9.60
2023-05-10T07:45:44.412Z,8.50
2023-05-10T07:48:13.810Z,12.40
2023-05-10T07:50:43.363Z,9.80
2023-05-10T07:53:12.687Z,12.80
2023-05-10T07:55:42.123Z,11.00
2023-05-10T07:58:11.576Z,11.30
2023-05-10T08:00:42.393Z,9.20
2023-05-10T08:03:12.174Z,8.10
2023-05-10T08:05:42.409Z,10.90
2023-05-10T08:08:11.738Z,8.60
2023-05-10T08:10:42.441Z,10.90
2023-05-10T08:13:14.853Z,7.50
2023-05-10T08:15:45.522Z,9.30
2023-05-10T08:18:15.328Z,9.70
2023-05-10T08:20:44.738Z,10.30
2023-05-10T08:23:14.581Z,9.90
2023-05-10T08:25:44.024Z,9.60
2023-05-10T08:28:13.478Z,11.10
2023-05-10T08:30:43.488Z,7.40
2023-05-10T08:33:13.604Z,6.40
2023-05-10T08:35:43.362Z,8.60
2023-05-10T08:38:13.912Z,8.00
2023-05-10T08:40:45.158Z,14.20
2023-05-10T08:43:17.667Z,7.10
2023-05-10T08:45:48.133Z,10.10
2023-05-10T08:48:19.954Z,10.20
2023-05-10T08:50:51.704Z,9.90
2023-05-10T08:53:22.518Z,7.70
2023-05-10T08:55:52.034Z,6.50
2023-05-10T08:58:21.632Z,8.00
2023-05-10T09:00:54.663Z,9.90
2023-05-10T09:03:24.155Z,7.50
2023-05-10T09:05:53.626Z,11.50
2023-05-10T09:08:28.497Z,4.70
2023-05-10T09:10:58.676Z,5.10
2023-05-10T09:13:29.530Z,6.50
2023-05-10T09:16:06.998Z,5.90
2023-05-10T09:18:43.863Z,6.80
2023-05-10T09:21:14.804Z,5.70
2023-05-10T09:23:48.606Z,7.40
2023-05-10T09:26:23.731Z,5.10
2023-05-10T09:29:01.400Z,4.40
2023-05-10T09:31:55.758Z,7.40
2023-05-10T09:34:33.450Z,7.90
2023-05-10T09:37:05.628Z,4.30
2023-05-10T09:39:39.617Z,6.00
2023-05-10T09:42:11.146Z,5.70
2023-05-10T09:44:42.064Z,3.60
2023-05-10T09:47:11.398Z,3.10
2023-05-10T09:49:43.106Z,4.20
2023-05-10T09:52:12.718Z,4.90
2023-05-10T09:54:54.472Z,4.10
2023-05-10T09:57:27.065Z,5.20
2023-05-10T09:59:58.694Z,7.70
2023-05-10T10:02:33.163Z,6.30
2023-05-10T10:05:05.130Z,4.30
2023-05-10T10:07:36.109Z,12.10
2023-05-10T10:10:06.449Z,5.20
2023-05-10T10:12:37.988Z,13.20
2023-05-10T10:15:10.894Z,12.80
2023-05-10T10:17:42.025Z,9.30
2023-05-10T10:20:12.465Z,5.90
2023-05-10T10:22:43.043Z,3.40
2023-05-10T10:25:18.137Z,4.30
2023-05-10T10:27:54.187Z,12.70
2023-05-10T10:30:52.167Z,3.30
2023-05-10T10:34:02.358Z,6.10
2023-05-10T10:36:32.402Z,3.90
2023-05-10T10:39:03.979Z,7.50
2023-05-10T10:41:45.669Z,6.00
2023-05-10T10:45:34.256Z,5.70
2023-05-10T10:48:37.070Z,5.90
2023-05-10T10:51:07.035Z,7.40
2023-05-10T10:53:38.660Z,9.60
2023-05-10T10:56:17.662Z,4.20
2023-05-10T10:58:55.699Z,6.90
2023-05-10T11:01:38.109Z,5.20
2023-05-10T11:04:08.245Z,5.60
2023-05-10T11:06:38.475Z,5.70
2023-05-10T11:09:10.985Z,7.40
2023-05-10T11:11:57.347Z,6.50
2023-05-10T11:14:27.435Z,6.70
2023-05-10T11:16:57.113Z,3.40
2023-05-10T11:19:29.380Z,7.80
2023-05-10T11:22:05.465Z,4.00
2023-05-10T11:24:37.140Z,5.10
2023-05-10T11:27:09.878Z,4.80
2023-05-10T11:29:40.136Z,5.00
2023-05-10T11:32:16.731Z,5.80
2023-05-10T11:34:51.971Z,4.50
2023-05-10T11:37:37.101Z,4.40
2023-05-10T11:40:08.155Z,4.70
2023-05-10T11:43:32.759Z,4.30
2023-05-10T11:48:37.589Z,5.70
2023-05-10T11:51:09.788Z,4.30
2023-05-10T11:53:42.380Z,3.40
2023-05-10T11:56:13.402Z,3.60
2023-05-10T11:58:43.128Z,6.40
2023-05-10T12:01:13.456Z,5.70
2023-05-10T12:03:50.332Z,3.90
2023-05-10T12:06:21.965Z,3.80
2023-05-10T12:08:55.778Z,4.00
2023-05-10T12:11:29.318Z,5.30
2023-05-10T12:13:59.116Z,6.10
2023-05-10T12:16:31.849Z,5.60
2023-05-10T12:19:02.390Z,5.70
2023-05-10T12:21:37.220Z,2.60
2023-05-10T12:24:07.502Z,17.70
2023-05-10T12:26:39.809Z,4.80
2023-05-10T12:29:42.708Z,4.50
2023-05-10T12:32:16.612Z,5.70
2023-05-10T12:34:48.429Z,8.30
2023-05-10T12:37:30.018Z,8.20
2023-05-10T12:40:02.196Z,5.90
2023-05-10T12:42:34.085Z,3.70
2023-05-10T12:45:42.800Z,6.30
2023-05-10T12:59:22.146Z,4.00
2023-05-10T13:02:03.539Z,11.40
2023-05-10T13:04:40.541Z,5.70
2023-05-10T13:07:24.534Z,5.90
2023-05-10T13:09:57.285Z,6.70
2023-05-10T13:12:26.883Z,5.10
2023-05-10T13:14:58.644Z,4.70
2023-05-10T13:17:29.163Z,7.00
2023-05-10T13:20:08.039Z,7.70
2023-05-10T13:22:40.832Z,3.70
2023-05-10T13:25:13.349Z,6.30
2023-05-10T13:27:44.065Z,3.80
2023-05-10T13:30:14.185Z,5.00
2023-05-10T13:32:44.278Z,4.00
2023-05-10T13:35:14.038Z,4.00
2023-05-10T13:37:44.028Z,11.60
2023-05-10T13:40:16.772Z,4.90
2023-05-10T13:42:51.985Z,5.30
2023-05-10T13:45:22.090Z,2.90
2023-05-10T13:47:51.552Z,2.90
2023-05-10T13:50:23.011Z,4.00
2023-05-10T13:52:58.444Z,2.40
2023-05-10T13:55:33.838Z,5.60
2023-05-10T13:58:03.536Z,6.30
2023-05-10T14:00:34.997Z,5.00
2023-05-10T14:03:06.114Z,30.00
2023-05-10T14:05:48.971Z,3.20
2023-05-10T14:08:19.239Z,4.30
2023-05-10T14:10:50.026Z,6.80
2023-05-10T14:13:19.686Z,7.40
2023-05-10T14:15:49.665Z,4.40
2023-05-10T14:18:19.358Z,4.10
2023-05-10T14:20:48.834Z,5.40
2023-05-10T14:23:20.725Z,3.50
2023-05-10T14:25:50.112Z,9.10
2023-05-10T14:28:21.737Z,7.20
2023-05-10T14:31:33.989Z,6.40
2023-05-10T14:34:05.603Z,5.40
2023-05-10T14:37:00.742Z,4.70
2023-05-10T14:39:43.692Z,3.90
2023-05-10T14:43:08.066Z,5.80
2023-05-10T14:46:41.280Z,4.90
2023-05-10T14:50:40.833Z,6.20
2023-05-10T14:53:33.495Z,9.90
2023-05-10T14:57:00.846Z,5.60
2023-05-10T14:59:47.050Z,8.40
2023-05-10T15:03:00.018Z,4.60
2023-05-10T15:06:35.316Z,4.10
2023-05-10T15:40:25.989Z,4.40
2023-05-10T15:44:21.898Z,7.30
2023-05-10T15:47:44.329Z,7.80
2023-05-10T15:50:25.236Z,8.90
2023-05-10T15:52:55.061Z,6.80
2023-05-10T16:00:11.210Z,6.00
2023-05-10T16:03:18.782Z,12.10
2023-05-10T16:06:27.085Z,10.70
2023-05-10T16:09:09.051Z,6.40
2023-05-10T16:11:40.607Z,6.00
2023-05-10T16:14:09.894Z,3.90
2023-05-10T16:16:48.426Z,4.90
2023-05-10T16:19:37.372Z,5.80
2023-05-10T16:22:08.272Z,2.80
2023-05-10T16:24:43.917Z,3.80
2023-05-10T16:27:33.917Z,3.10
2023-05-10T16:30:04.058Z,3.80
2023-05-10T16:32:37.032Z,3.50
2023-05-10T16:35:22.193Z,4.40
2023-05-10T16:37:59.201Z,3.70
2023-05-10T16:40:27.774Z,3.60
2023-05-10T16:43:21.095Z,3.90
2023-05-10T16:45:51.457Z,2.60
2023-05-10T16:48:54.347Z,4.20
2023-05-10T16:55:38.652Z,5.50
2023-05-10T16:59:26.783Z,3.70
2023-05-10T17:02:38.728Z,3.60
2023-05-10T17:05:56.106Z,4.20
2023-05-10T17:09:25.906Z,5.40
2023-05-10T17:12:00.359Z,6.50
2023-05-10T17:14:34.874Z,4.50
2023-05-10T17:17:04.275Z,5.10
2023-05-10T17:19:38.974Z,4.10
2023-05-10T17:22:07.773Z,4.10
2023-05-10T17:24:36.475Z,9.50
2023-05-10T17:27:08.829Z,7.30
2023-05-10T17:29:37.759Z,6.50
2023-05-10T17:32:08.542Z,36.70
2023-05-10T17:34:37.774Z,29.80
2023-05-10T17:37:06.034Z,6.90
2023-05-10T17:39:37.509Z,5.50
2023-05-10T17:42:07.032Z,3.90
2023-05-10T17:44:36.327Z,4.50
2023-05-10T17:47:06.248Z,5.70
2023-05-10T17:49:37.794Z,4.80
2023-05-10T17:52:30.265Z,5.30
2023-05-10T17:55:03.526Z,4.40
2023-05-10T17:57:34.814Z,4.20
2023-05-10T18:00:08.932Z,4.30
2023-05-10T18:02:41.705Z,4.40
2023-05-10T18:05:12.518Z,4.50
2023-05-10T18:07:40.701Z,4.10
2023-05-10T18:10:10.906Z,4.70
2023-05-10T18:12:39.074Z,4.70
2023-05-10T18:15:09.210Z,5.10
2023-05-10T18:17:38.025Z,4.70
2023-05-10T18:20:07.183Z,4.50
2023-05-10T18:22:37.445Z,5.10
2023-05-10T18:25:08.516Z,4.40
2023-05-10T18:27:36.802Z,4.70
2023-05-10T18:30:10.373Z,3.90
2023-05-10T18:32:42.823Z,4.80
2023-05-10T18:35:11.817Z,4.70
2023-05-10T18:37:41.869Z,5.90
2023-05-10T18:40:12.321Z,5.50
2023-05-10T18:42:41.777Z,4.80
2023-05-10T18:45:13.161Z,5.30
2023-05-10T18:47:42.420Z,3.40
2023-05-10T18:50:15.200Z,4.90
2023-05-10T18:52:43.539Z,5.10
2023-05-10T18:55:14.590Z,4.80
2023-05-10T18:57:44.633Z,3.80
2023-05-10T19:00:13.493Z,3.60
2023-05-10T19:02:41.622Z,4.60
2023-05-10T19:05:10.645Z,4.10
2023-05-10T19:07:42.747Z,4.90
2023-05-10T19:10:16.143Z,5.60
2023-05-10T19:12:44.199Z,3.90
2023-05-10T19:15:12.808Z,4.20
2023-05-10T19:17:41.516Z,5.50
2023-05-10T19:20:11.864Z,3.90
2023-05-10T19:25:12.636Z,4.60
2023-05-10T19:27:40.703Z,3.60
2023-05-10T19:30:09.785Z,5.10
2023-05-10T19:32:38.230Z,5.50
2023-05-10T19:35:07.121Z,7.10
2023-05-10T19:37:35.613Z,9.50
2023-05-10T19:40:05.290Z,11.40
2023-05-10T19:42:33.962Z,10.60
2023-05-10T19:45:03.526Z,8.40
2023-05-10T19:47:35.248Z,8.00
2023-05-10T19:50:04.435Z,8.50
2023-05-10T19:52:33.242Z,8.40
2023-05-10T19:55:01.582Z,8.30
2023-05-10T19:57:29.820Z,6.00
2023-05-10T19:59:57.806Z,6.40
2023-05-10T20:02:27.079Z,6.90
2023-05-10T20:04:55.672Z,5.70
2023-05-10T20:07:26.087Z,6.30
2023-05-10T20:09:55.389Z,5.80
2023-05-10T20:12:23.571Z,5.80
2023-05-10T20:14:51.663Z,7.70
2023-05-10T20:17:21.007Z,9.40
2023-05-10T20:19:50.746Z,9.70
2023-05-10T20:22:20.415Z,9.30
2023-05-10T20:24:48.660Z,9.20
2023-05-10T20:27:17.942Z,10.10
2023-05-10T20:29:46.095Z,8.60
2023-05-10T20:32:14.619Z,8.70
2023-05-10T20:34:43.790Z,8.30
2023-05-10T20:37:14.718Z,7.90
2023-05-10T20:39:44.923Z,9.50
2023-05-10T20:42:14.479Z,8.80
2023-05-10T20:44:42.846Z,7.00
2023-05-10T20:47:11.575Z,7.10
2023-05-10T20:49:40.207Z,6.50
2023-05-10T20:52:12.337Z,6.90
2023-05-10T20:54:42.668Z,5.70
2023-05-10T20:57:14.166Z,5.70
2023-05-10T20:59:45.324Z,5.00
2023-05-10T21:02:24.379Z,5.20
2023-05-10T21:04:56.348Z,5.00
2023-05-10T21:07:30.641Z,6.50
2023-05-10T21:10:00.529Z,5.30
2023-05-10T21:12:37.920Z,5.30
2023-05-10T21:15:08.604Z,6.90
2023-05-10T21:17:36.743Z,7.80
2023-05-10T21:20:05.862Z,5.90
2023-05-10T21:22:34.312Z,6.40
2023-05-10T21:25:02.499Z,5.90
2023-05-10T21:27:30.859Z,7.80
2023-05-10T21:30:01.379Z,7.10
2023-05-10T21:32:30.691Z,5.40
2023-05-10T21:35:01.475Z,5.40
2023-05-10T21:37:29.680Z,5.30
2023-05-10T21:39:58.601Z,9.00
2023-05-10T21:42:28.169Z,9.70
2023-05-10T21:44:56.688Z,16.40
2023-05-10T21:47:26.911Z,14.80
2023-05-10T21:49:55.209Z,19.50
2023-05-10T21:52:23.505Z,22.70
2023-05-10T21:54:51.899Z,23.60
2023-05-10T21:57:20.968Z,26.80
2023-05-10T21:59:49.706Z,24.20
2023-05-10T22:02:17.997Z,29.50
2023-05-10T22:04:46.211Z,25.40
2023-05-10T22:07:16.616Z,30.50
2023-05-10T22:09:44.932Z,26.80
2023-05-10T22:12:13.598Z,24.70
2023-05-10T22:14:41.779Z,23.40
2023-05-10T22:17:10.372Z,19.60
2023-05-10T22:19:38.966Z,21.50
2023-05-10T22:22:07.282Z,22.20
2023-05-10T22:24:35.530Z,23.80
2023-05-10T22:27:04.313Z,24.00
2023-05-10T22:29:32.565Z,23.70
2023-05-10T22:32:05.719Z,22.80
2023-05-10T22:34:35.266Z,16.30
2023-05-10T22:37:03.601Z,19.30
2023-05-10T22:39:32.949Z,17.50
2023-05-10T22:42:01.557Z,16.00
2023-05-10T22:44:29.804Z,18.60
2023-05-10T22:46:58.299Z,17.90
2023-05-10T22:49:26.771Z,16.20
2023-05-10T22:51:54.978Z,16.50
2023-05-10T22:54:24.070Z,19.60
2023-05-10T22:56:54.354Z,14.10
2023-05-10T22:59:23.787Z,14.00
2023-05-10T23:01:53.593Z,16.40
2023-05-10T23:04:22.530Z,10.10
2023-05-10T23:06:53.207Z,12.60
2023-05-10T23:09:21.520Z,13.80
2023-05-10T23:11:49.665Z,11.70
2023-05-10T23:14:17.848Z,11.60
2023-05-10T23:16:47.211Z,14.10
2023-05-10T23:19:16.666Z,13.80
2023-05-10T23:21:46.874Z,13.20
2023-05-10T23:24:15.534Z,11.90
2023-05-10T23:26:46.928Z,12.00
2023-05-10T23:29:17.623Z,15.70
2023-05-10T23:31:48.990Z,13.40
2023-05-10T23:34:17.990Z,13.70
2023-05-10T23:36:46.262Z,11.80
2023-05-10T23:39:14.933Z,12.70
2023-05-10T23:41:46.230Z,11.30
2023-05-10T23:44:14.364Z,13.10
2023-05-10T23:46:44.178Z,12.30
2023-05-10T23:49:12.449Z,11.40
2023-05-10T23:51:41.131Z,8.70
2023-05-10T23:54:10.501Z,11.30
2023-05-10T23:56:39.009Z,12.10
2023-05-10T23:59:07.830Z,12.10
